createdAt,value
2017-01-13T00:03:17.879Z,280.5
2017-01-13T00:14:17.613Z,281.1
2017-01-13T00:25:18.160Z,280.7
2017-01-13T00:36:17.974Z,280.8
2017-01-13T00:47:17.934Z,281
2017-01-13T00:58:17.094Z,281.2
2017-01-13T01:09:17.974Z,281.2
2017-01-13T01:20:18.370Z,280.9
2017-01-13T01:31:17.690Z,281.1
2017-01-13T01:42:17.999Z,281.4
2017-01-13T01:53:17.628Z,281.3
2017-01-13T02:04:17.537Z,281.4
2017-01-13T02:15:17.859Z,281.5
2017-01-13T02:26:18.044Z,281.3
2017-01-13T02:37:17.664Z,280.4
2017-01-13T02:48:17.954Z,279.3
2017-01-13T02:59:17.880Z,278.5
2017-01-13T03:10:17.395Z,278.3
2017-01-13T03:21:18.062Z,278.1
2017-01-13T03:32:18.185Z,278.1
2017-01-13T03:43:18.032Z,278.5
2017-01-13T03:54:17.484Z,278.3
2017-01-13T04:05:17.727Z,277.4
2017-01-13T04:16:17.226Z,277.7
2017-01-13T04:27:17.792Z,278
2017-01-13T04:38:17.856Z,277.4
2017-01-13T04:49:18.023Z,278.3
2017-01-13T05:00:17.859Z,278.4
2017-01-13T05:11:17.363Z,277.8
2017-01-13T05:22:17.150Z,278.3
2017-01-13T05:33:17.321Z,279.4
2017-01-13T05:44:17.395Z,277.4
2017-01-13T05:55:17.521Z,277.6
2017-01-13T06:06:17.937Z,277.9
2017-01-13T06:17:17.630Z,278
2017-01-13T06:28:17.627Z,277.5
2017-01-13T06:39:17.691Z,277.2
2017-01-13T07:01:17.117Z,277.9
2017-01-13T07:12:17.907Z,278.1
2017-01-13T07:23:18.326Z,277.7
2017-01-13T07:34:17.410Z,277.8
2017-01-13T07:45:17.732Z,278.3
2017-01-13T07:56:18.235Z,278.7
2017-01-13T08:07:17.696Z,278.8
2017-01-13T08:18:17.572Z,277.7
2017-01-13T08:29:17.625Z,279
2017-01-13T08:40:18.168Z,277.9
2017-01-13T08:51:18.104Z,279.8
2017-01-13T09:02:17.976Z,278.3
2017-01-13T09:13:18.089Z,280.2
2017-01-13T09:24:18.204Z,280
2017-01-13T09:35:17.878Z,280.2
2017-01-13T09:46:18.314Z,280.4
2017-01-13T09:57:17.177Z,280.5
2017-01-13T10:08:17.445Z,280
2017-01-13T10:19:17.700Z,279.3
2017-01-13T10:30:18.261Z,280.4
2017-01-13T10:41:17.865Z,280.6
2017-01-13T10:52:17.261Z,279.1
2017-01-13T11:03:17.485Z,287
2017-01-13T11:14:17.988Z,279.4
2017-01-13T11:25:17.842Z,280
2017-01-13T11:36:17.737Z,279.7
2017-01-13T11:47:17.984Z,280.5
2017-01-13T11:58:18.034Z,279.3
2017-01-13T12:09:17.339Z,280.1
2017-01-13T12:20:17.970Z,280
2017-01-13T12:31:17.764Z,279
2017-01-13T12:42:17.814Z,279.4
2017-01-13T12:53:18.005Z,277.9
2017-01-13T13:04:17.119Z,279.6
2017-01-13T13:15:17.845Z,280.5
2017-01-13T13:26:17.319Z,280
2017-01-13T13:37:18.201Z,279.9
2017-01-13T13:48:17.438Z,280.2
2017-01-13T13:59:18.055Z,280.1
2017-01-13T14:10:18.000Z,280.5
2017-01-13T14:21:17.825Z,279.3
2017-01-13T14:32:17.367Z,278.2
2017-01-13T14:43:17.392Z,280.3
2017-01-13T14:54:18.301Z,278.9
2017-01-13T15:05:17.965Z,279.9
2017-01-13T15:16:17.802Z,277.7
2017-01-13T15:27:17.642Z,279.9
2017-01-13T15:38:17.765Z,277.8
2017-01-13T15:49:17.573Z,277.5
2017-01-13T16:00:18.528Z,276.9
2017-01-13T16:11:18.121Z,278.7
2017-01-13T16:22:18.015Z,277
2017-01-13T16:33:17.337Z,276.8
2017-01-13T16:44:18.121Z,277.4
2017-01-13T16:55:17.495Z,276.7
2017-01-13T17:06:18.009Z,276.9
2017-01-13T17:17:18.169Z,277.7
2017-01-13T17:28:17.897Z,280
2017-01-13T17:39:17.297Z,280.2
2017-01-13T17:50:18.471Z,280.4
2017-01-13T18:01:17.945Z,280.3
2017-01-13T18:12:17.401Z,280
2017-01-13T18:23:17.454Z,279.9
2017-01-13T18:34:18.174Z,280.2
2017-01-13T18:45:18.026Z,280.1
2017-01-13T18:56:17.360Z,279.7
2017-01-13T19:07:18.970Z,279.6
2017-01-13T19:18:17.749Z,280.1
2017-01-13T19:29:18.215Z,279.6
2017-01-13T19:40:17.882Z,280
2017-01-13T19:51:17.641Z,280
2017-01-13T20:02:17.792Z,280.2
2017-01-13T20:13:17.841Z,280
2017-01-13T20:24:17.182Z,280.5
2017-01-13T20:35:18.308Z,280.1
2017-01-13T20:46:17.514Z,280.1
2017-01-13T20:57:18.163Z,280.5
2017-01-13T21:08:17.332Z,280.4
2017-01-13T21:19:17.776Z,280.5
2017-01-13T21:30:17.766Z,280.1
2017-01-13T21:41:18.673Z,280.4
2017-01-13T21:52:17.717Z,280.9
2017-01-13T22:03:17.479Z,280.8
2017-01-13T22:14:18.407Z,280.9
2017-01-13T22:25:17.552Z,281
2017-01-13T22:36:17.874Z,280.5
2017-01-13T22:47:18.198Z,281
2017-01-13T22:58:17.631Z,281.4
2017-01-13T23:09:16.971Z,281.1
2017-01-13T23:15:17.384Z,280.9
2017-01-13T23:21:17.752Z,280.8
2017-01-13T23:27:18.313Z,280.8
2017-01-13T23:33:17.630Z,281.1
2017-01-13T23:39:18.153Z,281
2017-01-13T23:45:18.092Z,280.9
2017-01-13T23:51:17.700Z,281
2017-01-13T23:57:17.948Z,281.1
